Time;durP1;ratioP1;P1;durP2;ratioP2;P2;SDS_P1;SDS_P2;PMS_P1;PMS_P2;Temp;Humidity;BMP_temperature;BMP_pressure;BME280_temperature;BME280_humidity;BME280_pressure;Samples;Min_cycle;Max_cycle;Signal;HPM_P1;HPM_P2
2023/07/05 00:00:21;;;;;;;16.58;9.73;;;;;;;;;;5013518;28;20045;-65
2023/07/05 00:02:50;;;;;;;17.27;10.55;;;;;;;;;;5012600;28;20436;-64
2023/07/05 00:05:15;;;;;;;20.10;10.60;;;;;;;;;;5012047;28;20486;-62
2023/07/05 00:07:40;;;;;;;19.35;10.55;;;;;;;;;;5010733;28;20026;-63
2023/07/05 00:10:05;;;;;;;15.27;8.95;;;;;;;;;;5010856;28;20038;-65
2023/07/05 00:12:31;;;;;;;17.90;9.95;;;;;;;;;;5012678;28;20486;-63
2023/07/05 00:14:56;;;;;;;16.58;9.13;;;;;;;;;;5013288;28;20133;-64
2023/07/05 00:17:22;;;;;;;16.88;10.18;;;;;;;;;;5011941;28;20029;-64
2023/07/05 00:19:50;;;;;;;18.00;10.50;;;;;;;;;;5013576;28;20101;-63
2023/07/05 00:22:16;;;;;;;17.98;9.45;;;;;;;;;;5018668;28;20026;-63
2023/07/05 00:24:41;;;;;;;17.10;9.40;;;;;;;;;;5016737;28;20070;-62
2023/07/05 00:27:06;;;;;;;17.10;9.52;;;;;;;;;;5010822;28;20109;-64
2023/07/05 00:29:31;;;;;;;16.50;10.13;;;;;;;;;;5029308;28;20077;-63
2023/07/05 00:31:56;;;;;;;16.40;9.83;;;;;;;;;;5028357;28;20037;-64
2023/07/05 00:34:21;;;;;;;18.90;9.95;;;;;;;;;;5023574;28;20437;-66
2023/07/05 00:36:46;;;;;;;17.38;9.77;;;;;;;;;;5014114;28;20025;-64
2023/07/05 00:39:12;;;;;;;17.05;9.25;;;;;;;;;;5011703;28;20505;-63
2023/07/05 00:41:37;;;;;;;16.67;9.40;;;;;;;;;;5012910;28;20084;-63
2023/07/05 00:44:02;;;;;;;18.90;10.50;;;;;;;;;;5012151;28;20028;-63
2023/07/05 00:46:30;;;;;;;16.90;9.30;;;;;;;;;;5012266;28;20077;-63
2023/07/05 00:49:02;;;;;;;18.42;9.50;;;;;;;;;;5011517;28;20022;-65
2023/07/05 00:51:45;;;;;;;19.13;10.25;;;;;;;;;;5012573;28;20022;-63
2023/07/05 00:54:11;;;;;;;17.08;9.88;;;;;;;;;;5011469;28;20029;-64
2023/07/05 00:56:49;;;;;;;17.45;9.60;;;;;;;;;;5012686;28;20033;-64
2023/07/05 00:59:15;;;;;;;18.27;9.50;;;;;;;;;;5009546;28;20040;-63
2023/07/05 01:01:40;;;;;;;17.88;10.10;;;;;;;;;;5011837;28;20080;-65
2023/07/05 01:04:06;;;;;;;18.85;10.30;;;;;;;;;;5011386;28;20034;-64
2023/07/05 01:06:31;;;;;;;19.80;9.68;;;;;;;;;;5012200;28;20041;-63
2023/07/05 01:08:57;;;;;;;16.88;9.55;;;;;;;;;;5011240;28;20018;-64
2023/07/05 01:11:32;;;;;;;18.53;9.83;;;;;;;;;;5012076;28;20033;-65
2023/07/05 01:14:15;;;;;;;19.30;10.00;;;;;;;;;;5011622;28;20022;-63
2023/07/05 01:16:55;;;;;;;15.52;8.90;;;;;;;;;;5012111;28;20034;-63
2023/07/05 01:19:44;;;;;;;20.38;10.40;;;;;;;;;;5008435;28;20895;-64
2023/07/05 01:22:12;;;;;;;18.88;10.10;;;;;;;;;;4987019;28;20061;-63
2023/07/05 01:24:52;;;;;;;18.17;9.90;;;;;;;;;;5012580;28;20686;-64
2023/07/05 01:27:23;;;;;;;16.52;9.45;;;;;;;;;;5011586;28;20042;-63
2023/07/05 01:30:05;;;;;;;16.25;10.20;;;;;;;;;;5009204;28;20367;-62
2023/07/05 01:32:34;;;;;;;18.65;9.65;;;;;;;;;;5006348;28;20022;-62
2023/07/05 01:35:04;;;;;;;16.40;9.40;;;;;;;;;;5011856;28;20034;-64
2023/07/05 01:37:33;;;;;;;18.33;9.52;;;;;;;;;;5010670;28;20026;-64
2023/07/05 01:39:58;;;;;;;18.73;10.18;;;;;;;;;;5011822;28;20148;-62
2023/07/05 01:42:26;;;;;;;17.63;9.60;;;;;;;;;;5011138;28;20045;-63
2023/07/05 01:44:51;;;;;;;18.85;10.85;;;;;;;;;;5011251;28;20036;-64
2023/07/05 01:47:20;;;;;;;20.73;10.37;;;;;;;;;;5009823;28;20432;-64
2023/07/05 01:49:52;;;;;;;20.80;10.43;;;;;;;;;;5008003;28;20497;-63
2023/07/05 01:52:27;;;;;;;19.10;10.48;;;;;;;;;;5010579;28;20021;-64
2023/07/05 01:55:08;;;;;;;18.83;10.13;;;;;;;;;;5011241;28;20052;-64
2023/07/05 01:57:36;;;;;;;19.95;11.25;;;;;;;;;;5009857;28;20346;-64
2023/07/05 02:00:20;;;;;;;17.20;9.45;;;;;;;;;;5009728;28;21426;-63
2023/07/05 02:02:55;;;;;;;17.30;9.27;;;;;;;;;;5025083;28;20021;-63
2023/07/05 02:05:22;;;;;;;18.52;10.85;;;;;;;;;;5031088;28;20362;-64
2023/07/05 02:07:48;;;;;;;17.13;9.85;;;;;;;;;;5008833;28;20040;-65
2023/07/05 02:10:14;;;;;;;19.03;10.20;;;;;;;;;;5011494;28;20018;-62
2023/07/05 02:12:39;;;;;;;17.65;9.82;;;;;;;;;;5010601;28;20022;-62
2023/07/05 02:15:04;;;;;;;20.40;10.73;;;;;;;;;;5011325;28;20029;-64
2023/07/05 02:17:29;;;;;;;18.63;10.15;;;;;;;;;;5010930;28;20023;-63
2023/07/05 02:19:55;;;;;;;18.30;10.40;;;;;;;;;;5011283;28;20096;-63
2023/07/05 02:22:20;;;;;;;16.90;9.75;;;;;;;;;;5009532;28;20117;-63
2023/07/05 02:24:46;;;;;;;20.23;11.13;;;;;;;;;;5011117;28;20366;-63
2023/07/05 02:27:11;;;;;;;18.33;10.85;;;;;;;;;;5009743;28;20063;-63
2023/07/05 02:29:36;;;;;;;20.60;10.32;;;;;;;;;;5011543;28;20076;-62
2023/07/05 02:32:01;;;;;;;17.67;9.90;;;;;;;;;;5011405;28;20034;-63
2023/07/05 02:34:27;;;;;;;21.10;10.02;;;;;;;;;;5010356;28;20425;-64
2023/07/05 02:36:52;;;;;;;19.02;11.13;;;;;;;;;;5011026;28;20050;-63
2023/07/05 02:39:18;;;;;;;17.87;10.33;;;;;;;;;;5008668;28;20453;-64
2023/07/05 02:41:43;;;;;;;18.95;10.18;;;;;;;;;;5010815;28;20033;-63
2023/07/05 02:44:08;;;;;;;18.73;10.87;;;;;;;;;;5009465;28;20018;-63
2023/07/05 02:46:33;;;;;;;18.70;10.00;;;;;;;;;;5004195;28;20042;-64
2023/07/05 02:48:58;;;;;;;20.23;10.93;;;;;;;;;;5010784;28;20048;-63
2023/07/05 02:51:24;;;;;;;16.10;8.93;;;;;;;;;;5011237;28;20037;-64
2023/07/05 02:53:49;;;;;;;17.35;10.60;;;;;;;;;;5010437;28;20424;-62
2023/07/05 02:56:14;;;;;;;19.05;11.13;;;;;;;;;;5015545;28;20040;-63
2023/07/05 02:58:40;;;;;;;18.58;10.02;;;;;;;;;;5014582;28;20030;-64
2023/07/05 03:01:06;;;;;;;18.17;9.93;;;;;;;;;;5016635;28;20041;-64
2023/07/05 03:03:32;;;;;;;21.95;11.07;;;;;;;;;;5020608;28;20584;-63
2023/07/05 03:05:57;;;;;;;17.30;10.18;;;;;;;;;;5015226;28;20069;-63
2023/07/05 03:08:25;;;;;;;17.40;9.75;;;;;;;;;;5009875;28;20045;-64
2023/07/05 03:10:51;;;;;;;16.95;9.40;;;;;;;;;;5010416;28;20029;-63
2023/07/05 03:13:18;;;;;;;22.63;11.20;;;;;;;;;;5006953;28;20023;-63
2023/07/05 03:15:43;;;;;;;18.83;10.25;;;;;;;;;;5010888;28;20151;-62
2023/07/05 03:18:08;;;;;;;18.60;9.68;;;;;;;;;;5010226;28;20030;-61
2023/07/05 03:20:34;;;;;;;20.23;11.48;;;;;;;;;;5012203;28;20389;-62
2023/07/05 03:22:59;;;;;;;17.38;9.85;;;;;;;;;;5010302;28;20072;-63
2023/07/05 03:25:24;;;;;;;20.20;10.57;;;;;;;;;;5008849;28;20057;-63
2023/07/05 03:27:49;;;;;;;17.98;10.63;;;;;;;;;;5012269;28;20438;-64
2023/07/05 03:30:15;;;;;;;19.65;10.57;;;;;;;;;;5010092;28;20025;-62
2023/07/05 03:32:43;;;;;;;19.47;10.60;;;;;;;;;;5010273;28;20042;-65
2023/07/05 03:35:08;;;;;;;18.92;10.27;;;;;;;;;;5008616;28;20033;-63
2023/07/05 03:37:33;;;;;;;17.58;9.75;;;;;;;;;;5010707;28;20025;-63
2023/07/05 03:39:58;;;;;;;19.17;10.27;;;;;;;;;;5010240;28;20072;-63
2023/07/05 03:42:24;;;;;;;18.38;9.77;;;;;;;;;;5009415;28;20029;-61
2023/07/05 03:44:49;;;;;;;19.47;10.20;;;;;;;;;;5004381;28;20030;-62
2023/07/05 03:47:14;;;;;;;17.27;9.55;;;;;;;;;;5014047;28;20500;-64
2023/07/05 03:49:39;;;;;;;20.33;10.67;;;;;;;;;;5014007;28;20018;-64
2023/07/05 03:52:04;;;;;;;18.90;10.03;;;;;;;;;;5012769;28;20033;-62
2023/07/05 03:54:30;;;;;;;16.75;9.30;;;;;;;;;;5013289;28;20018;-63
2023/07/05 03:56:55;;;;;;;16.73;10.00;;;;;;;;;;5013621;28;20040;-61
2023/07/05 03:59:20;;;;;;;19.15;10.10;;;;;;;;;;5014293;28;20116;-63
2023/07/05 04:01:45;;;;;;;21.58;9.70;;;;;;;;;;5012926;28;20095;-62
2023/07/05 04:04:10;;;;;;;16.80;10.05;;;;;;;;;;5013082;28;20026;-64
2023/07/05 04:06:35;;;;;;;18.33;10.40;;;;;;;;;;5013506;28;20110;-63
2023/07/05 04:09:01;;;;;;;19.50;10.30;;;;;;;;;;5013667;28;20022;-63
2023/07/05 04:11:26;;;;;;;18.97;10.10;;;;;;;;;;5013487;28;20042;-63
2023/07/05 04:13:52;;;;;;;18.80;10.20;;;;;;;;;;5011896;28;20108;-63
2023/07/05 04:16:18;;;;;;;15.95;9.60;;;;;;;;;;5013826;28;20113;-63
2023/07/05 04:18:44;;;;;;;;;;;;;;;;;;5014088;28;20030;-63
2023/07/05 04:21:09;;;;;;;17.77;9.43;;;;;;;;;;5008291;28;19909;-62
2023/07/05 04:23:35;;;;;;;19.83;10.82;;;;;;;;;;5014872;28;20513;-63
2023/07/05 04:26:04;;;;;;;20.77;10.80;;;;;;;;;;5012827;28;20104;-62
2023/07/05 04:28:30;;;;;;;17.40;10.25;;;;;;;;;;5012114;28;20017;-64
2023/07/05 04:30:55;;;;;;;19.25;10.20;;;;;;;;;;5008508;28;20028;-62
2023/07/05 04:33:20;;;;;;;18.87;10.90;;;;;;;;;;5006993;28;20034;-63
2023/07/05 04:35:46;;;;;;;19.33;10.45;;;;;;;;;;5004028;28;20104;-61
2023/07/05 04:38:12;;;;;;;19.63;11.27;;;;;;;;;;5007178;28;20045;-63
2023/07/05 04:40:37;;;;;;;19.30;11.07;;;;;;;;;;5009652;28;20034;-64
2023/07/05 04:43:03;;;;;;;22.07;11.10;;;;;;;;;;5007091;28;20026;-64
2023/07/05 04:45:28;;;;;;;18.38;11.23;;;;;;;;;;5009136;28;20437;-64
2023/07/05 04:47:53;;;;;;;19.35;10.98;;;;;;;;;;5004108;28;20129;-63
2023/07/05 04:50:18;;;;;;;18.45;11.13;;;;;;;;;;5005529;28;20477;-63
2023/07/05 04:52:43;;;;;;;20.02;11.55;;;;;;;;;;5003829;28;20022;-62
2023/07/05 04:55:08;;;;;;;17.38;10.75;;;;;;;;;;4991276;28;20061;-64
2023/07/05 04:57:33;;;;;;;18.85;11.68;;;;;;;;;;5000021;28;20045;-62
2023/07/05 05:00:04;;;;;;;21.30;12.00;;;;;;;;;;5008315;28;20038;-62
2023/07/05 05:02:29;;;;;;;16.77;11.38;;;;;;;;;;4996309;28;20022;-62
2023/07/05 05:04:54;;;;;;;19.83;11.32;;;;;;;;;;4994168;28;20089;-62
2023/07/05 05:07:19;;;;;;;18.95;11.68;;;;;;;;;;5007057;28;20129;-62
2023/07/05 05:09:45;;;;;;;18.73;11.17;;;;;;;;;;5009338;28;20033;-62
2023/07/05 05:12:10;;;;;;;17.73;10.60;;;;;;;;;;5009134;28;20052;-61
2023/07/05 05:14:35;;;;;;;17.03;10.70;;;;;;;;;;5009020;28;20115;-62
2023/07/05 05:17:00;;;;;;;18.27;11.13;;;;;;;;;;5007010;28;20030;-61
2023/07/05 05:19:25;;;;;;;17.77;10.80;;;;;;;;;;5011669;28;20024;-62
2023/07/05 05:21:50;;;;;;;18.38;11.07;;;;;;;;;;5011820;28;20057;-63
2023/07/05 05:24:15;;;;;;;17.58;10.40;;;;;;;;;;5011330;28;20608;-63
2023/07/05 05:26:41;;;;;;;20.07;10.83;;;;;;;;;;5009333;28;20045;-63
2023/07/05 05:29:06;;;;;;;18.40;11.32;;;;;;;;;;5012130;28;20024;-62
2023/07/05 05:31:31;;;;;;;20.25;10.65;;;;;;;;;;5012215;28;20029;-61
2023/07/05 05:33:56;;;;;;;18.58;11.00;;;;;;;;;;5011432;28;20014;-62
2023/07/05 05:36:23;;;;;;;23.77;11.98;;;;;;;;;;5009292;28;20037;-62
2023/07/05 05:38:48;;;;;;;21.52;11.80;;;;;;;;;;5011748;28;20373;-62
2023/07/05 05:41:13;;;;;;;19.92;11.05;;;;;;;;;;5010969;28;20017;-62
2023/07/05 05:43:39;;;;;;;18.25;10.63;;;;;;;;;;5011343;28;20065;-62
2023/07/05 05:46:04;;;;;;;21.45;11.23;;;;;;;;;;5009447;28;20100;-62
2023/07/05 05:48:29;;;;;;;17.15;10.75;;;;;;;;;;5007884;28;20025;-63
2023/07/05 05:50:54;;;;;;;22.97;11.50;;;;;;;;;;5011614;28;20026;-62
2023/07/05 05:53:20;;;;;;;19.30;10.83;;;;;;;;;;5010937;28;20022;-62
2023/07/05 05:55:45;;;;;;;20.75;11.57;;;;;;;;;;5008253;28;20114;-61
2023/07/05 05:58:10;;;;;;;18.48;11.50;;;;;;;;;;5003676;28;20033;-62
2023/07/05 06:00:36;;;;;;;21.27;12.02;;;;;;;;;;5010120;28;20144;-62
2023/07/05 06:03:02;;;;;;;19.00;11.25;;;;;;;;;;5008750;28;20047;-62
2023/07/05 06:05:27;;;;;;;21.67;11.98;;;;;;;;;;4998746;28;20025;-64
2023/07/05 06:07:52;;;;;;;18.23;10.80;;;;;;;;;;4997900;28;20046;-64
2023/07/05 06:10:18;;;;;;;18.55;10.90;;;;;;;;;;4995099;28;20488;-64
2023/07/05 06:12:43;;;;;;;21.53;10.73;;;;;;;;;;5010769;28;20114;-63
2023/07/05 06:15:12;;;;;;;18.65;11.57;;;;;;;;;;5000710;28;20018;-64
2023/07/05 06:17:37;;;;;;;19.50;10.82;;;;;;;;;;4991949;28;20019;-63
2023/07/05 06:20:05;;;;;;;19.70;11.48;;;;;;;;;;5002209;28;20032;-63
2023/07/05 06:22:31;;;;;;;17.80;10.82;;;;;;;;;;5007093;28;20018;-62
2023/07/05 06:24:56;;;;;;;17.77;11.55;;;;;;;;;;4996063;28;20486;-62
2023/07/05 06:27:21;;;;;;;19.05;10.93;;;;;;;;;;5000789;28;20033;-62
2023/07/05 06:29:46;;;;;;;16.85;10.88;;;;;;;;;;5009978;28;20052;-63
2023/07/05 06:32:11;;;;;;;17.20;10.93;;;;;;;;;;5010911;28;20017;-63
2023/07/05 06:34:36;;;;;;;18.73;11.07;;;;;;;;;;5009867;28;20097;-62
2023/07/05 06:37:01;;;;;;;;;;;;;;;;;;5011342;28;20029;-61
2023/07/05 06:39:27;;;;;;;18.38;11.75;;;;;;;;;;5009134;28;20345;-63
2023/07/05 06:41:52;;;;;;;19.23;11.18;;;;;;;;;;5010673;28;20028;-62
2023/07/05 06:44:17;;;;;;;21.23;11.20;;;;;;;;;;5010305;28;20494;-64
2023/07/05 06:46:42;;;;;;;22.88;11.30;;;;;;;;;;5011128;28;20037;-63
2023/07/05 06:49:07;;;;;;;20.85;11.75;;;;;;;;;;5008398;28;20374;-64
2023/07/05 06:51:32;;;;;;;17.67;10.63;;;;;;;;;;5009947;28;20113;-64
2023/07/05 06:53:58;;;;;;;17.05;10.15;;;;;;;;;;5009099;28;20030;-64
2023/07/05 06:56:23;;;;;;;17.80;10.80;;;;;;;;;;5009861;28;20029;-64
2023/07/05 06:58:48;;;;;;;20.43;10.37;;;;;;;;;;5001124;28;20571;-61
2023/07/05 07:01:13;;;;;;;15.67;10.60;;;;;;;;;;5005733;28;20034;-63
2023/07/05 07:03:38;;;;;;;20.13;11.10;;;;;;;;;;5005598;28;20053;-62
2023/07/05 07:06:04;;;;;;;18.48;10.10;;;;;;;;;;5006245;28;20501;-64
2023/07/05 07:08:31;;;;;;;19.17;10.75;;;;;;;;;;5006845;28;20034;-62
2023/07/05 07:11:00;;;;;;;18.30;10.68;;;;;;;;;;5004445;28;20465;-64
2023/07/05 07:13:25;;;;;;;16.80;11.13;;;;;;;;;;5001903;28;20018;-62
2023/07/05 07:16:01;;;;;;;16.43;10.40;;;;;;;;;;5008605;28;20025;-62
2023/07/05 07:18:26;;;;;;;16.30;9.90;;;;;;;;;;4995409;28;20019;-63
2023/07/05 07:20:53;;;;;;;18.30;10.93;;;;;;;;;;5007935;28;20072;-63
2023/07/05 07:23:18;;;;;;;19.85;10.48;;;;;;;;;;5011051;28;20045;-63
2023/07/05 07:25:43;;;;;;;17.53;9.23;;;;;;;;;;5010903;28;20497;-64
2023/07/05 07:28:08;;;;;;;;;;;;;;;;;;5015168;28;20112;-62
2023/07/05 07:30:33;;;;;;;10.73;6.18;;;;;;;;;;5014386;28;20397;-64
2023/07/05 07:32:58;;;;;;;;;;;;;;;;;;5013017;28;20105;-63
2023/07/05 07:35:24;;;;;;;9.73;4.75;;;;;;;;;;5011789;28;20407;-64
2023/07/05 07:37:49;;;;;;;;;;;;;;;;;;5009835;28;20113;-63
2023/07/05 07:40:14;;;;;;;7.72;4.00;;;;;;;;;;5014670;28;19909;-62
2023/07/05 07:42:39;;;;;;;;;;;;;;;;;;5012601;28;20168;-62
2023/07/05 07:45:04;;;;;;;6.75;3.70;;;;;;;;;;5008585;28;19917;-63
2023/07/05 07:47:29;;;;;;;;;;;;;;;;;;5015032;28;20120;-63
2023/07/05 07:49:54;;;;;;;9.77;4.50;;;;;;;;;;5016971;28;20311;-62
2023/07/05 07:52:19;;;;;;;;;;;;;;;;;;5018497;28;20037;-62
2023/07/05 07:54:45;;;;;;;8.27;4.57;;;;;;;;;;5014344;28;20352;-63
2023/07/05 07:57:10;;;;;;;;;;;;;;;;;;5008983;28;20018;-65
2023/07/05 07:59:40;;;;;;;8.05;4.80;;;;;;;;;;5011080;28;20229;-63
2023/07/05 08:02:06;;;;;;;8.10;4.53;;;;;;;;;;5013001;28;20034;-63
2023/07/05 08:04:32;;;;;;;9.40;4.50;;;;;;;;;;5013789;28;20029;-63
2023/07/05 08:06:57;;;;;;;;;;;;;;;;;;5013209;28;20034;-64
2023/07/05 08:09:23;;;;;;;8.25;4.50;;;;;;;;;;5013527;28;19906;-64
2023/07/05 08:11:49;;;;;;;8.43;4.32;;;;;;;;;;5013473;28;20014;-63
2023/07/05 08:14:15;;;;;;;;;;;;;;;;;;5014342;28;20079;-63
2023/07/05 08:16:40;;;;;;;7.70;3.95;;;;;;;;;;5009115;28;19913;-63
2023/07/05 08:19:05;;;;;;;;;;;;;;;;;;5013961;28;20021;-62
2023/07/05 08:21:31;;;;;;;7.95;3.92;;;;;;;;;;5013565;28;19909;-64
2023/07/05 08:23:56;;;;;;;;;;;;;;;;;;5013381;28;20016;-62
2023/07/05 08:26:21;;;;;;;7.47;3.88;;;;;;;;;;5011540;28;20223;-64
2023/07/05 08:28:46;;;;;;;8.37;3.77;;;;;;;;;;5013656;28;20018;-64
2023/07/05 08:31:11;;;;;;;8.37;3.93;;;;;;;;;;5012924;28;20551;-62
2023/07/05 08:33:36;;;;;;;;;;;;;;;;;;5010413;28;20534;-64
2023/07/05 08:36:06;;;;;;;7.80;3.63;;;;;;;;;;4998767;28;19924;-63
2023/07/05 08:38:31;;;;;;;7.03;3.47;;;;;;;;;;5014218;28;20014;-63
2023/07/05 08:40:57;;;;;;;;;;;;;;;;;;5014858;28;20024;-62
2023/07/05 08:43:22;;;;;;;7.35;3.50;;;;;;;;;;5013251;28;19906;-63
2023/07/05 08:45:51;;;;;;;9.40;3.70;;;;;;;;;;5012733;28;20022;-63
2023/07/05 08:48:16;;;;;;;7.13;3.60;;;;;;;;;;5012536;28;20026;-62
2023/07/05 08:50:42;;;;;;;;;;;;;;;;;;5013345;28;20038;-64
2023/07/05 08:53:19;;;;;;;7.60;4.00;;;;;;;;;;5012997;28;20289;-62
2023/07/05 08:55:44;;;;;;;;;;;;;;;;;;5013318;28;20018;-64
2023/07/05 08:58:10;;;;;;;5.70;3.03;;;;;;;;;;5009398;28;19909;-63
2023/07/05 09:00:45;;;;;;;7.93;2.85;;;;;;;;;;5010730;28;20087;-64
2023/07/05 09:03:11;;;;;;;6.53;2.95;;;;;;;;;;5009982;28;20026;-62
2023/07/05 09:05:36;;;;;;;;;;;;;;;;;;5013406;28;20029;-63
2023/07/05 09:08:19;;;;;;;6.53;3.17;;;;;;;;;;5012456;28;19913;-62
2023/07/05 09:10:44;;;;;;;;;;;;;;;;;;5011081;28;20026;-63
2023/07/05 09:13:09;;;;;;;8.95;3.20;;;;;;;;;;5008771;28;19935;-64
2023/07/05 09:15:38;;;;;;;7.57;3.28;;;;;;;;;;5012126;28;20025;-63
2023/07/05 09:18:14;;;;;;;6.35;3.63;;;;;;;;;;5012754;28;20026;-61
2023/07/05 09:20:48;;;;;;;7.03;3.60;;;;;;;;;;5012398;28;20017;-63
2023/07/05 09:23:16;;;;;;;7.57;3.67;;;;;;;;;;5012163;28;20072;-63
2023/07/05 09:25:43;;;;;;;7.35;3.80;;;;;;;;;;5012752;28;20017;-63
2023/07/05 09:28:14;;;;;;;7.05;3.47;;;;;;;;;;5012528;28;20041;-62
2023/07/05 09:30:39;;;;;;;7.38;3.50;;;;;;;;;;5012394;28;20092;-62
2023/07/05 09:33:05;;;;;;;;;;;;;;;;;;5011354;28;20486;-64
2023/07/05 09:35:32;;;;;;;7.68;3.92;;;;;;;;;;5007507;28;19909;-62
2023/07/05 09:38:00;;;;;;;8.30;3.45;;;;;;;;;;5009263;28;20068;-64
2023/07/05 09:40:28;;;;;;;7.78;3.40;;;;;;;;;;5011691;28;20497;-63
2023/07/05 09:42:56;;;;;;;6.05;3.20;;;;;;;;;;5010920;28;20085;-63
2023/07/05 09:45:21;;;;;;;6.90;3.22;;;;;;;;;;5006561;28;20051;-63
2023/07/05 09:47:46;;;;;;;;;;;;;;;;;;5012848;28;20093;-63
2023/07/05 09:50:16;;;;;;;6.77;3.47;;;;;;;;;;5011823;28;19967;-64
2023/07/05 09:52:42;;;;;;;6.35;3.70;;;;;;;;;;5008755;28;20060;-63
2023/07/05 09:55:10;;;;;;;;;;;;;;;;;;5012157;28;20366;-64
2023/07/05 09:57:38;;;;;;;8.23;4.00;;;;;;;;;;5011661;28;20285;-63
2023/07/05 10:00:04;;;;;;;7.88;3.78;;;;;;;;;;5008114;28;20045;-63
2023/07/05 10:02:31;;;;;;;7.63;4.35;;;;;;;;;;5006815;28;20018;-64
2023/07/05 10:05:09;;;;;;;8.43;5.22;;;;;;;;;;5011627;28;20026;-63
2023/07/05 10:07:35;;;;;;;8.77;4.88;;;;;;;;;;5009385;28;20037;-64
2023/07/05 10:10:01;;;;;;;;;;;;;;;;;;5019230;28;20026;-63
2023/07/05 10:12:30;;;;;;;8.70;4.45;;;;;;;;;;5020504;28;19917;-62
2023/07/05 10:14:56;;;;;;;7.03;3.55;;;;;;;;;;5020803;28;20040;-63
2023/07/05 10:17:21;;;;;;;;;;;;;;;;;;5026039;28;20017;-64
2023/07/05 10:19:50;;;;;;;6.95;2.92;;;;;;;;;;5024144;28;19960;-62
2023/07/05 10:22:32;;;;;;;6.97;3.10;;;;;;;;;;5012509;28;20032;-63
2023/07/05 10:25:01;;;;;;;6.28;2.92;;;;;;;;;;5010119;28;20462;-64
2023/07/05 10:27:28;;;;;;;5.85;2.90;;;;;;;;;;5008010;28;20057;-63
2023/07/05 10:30:01;;;;;;;6.88;2.97;;;;;;;;;;5011286;28;20098;-63
2023/07/05 10:32:26;;;;;;;8.18;2.97;;;;;;;;;;5010360;28;20083;-64
2023/07/05 10:34:52;;;;;;;;;;;;;;;;;;5011952;28;20030;-64
2023/07/05 10:37:25;;;;;;;6.20;3.10;;;;;;;;;;5008336;28;19909;-62
2023/07/05 10:39:50;;;;;;;9.02;2.95;;;;;;;;;;5011098;28;20046;-63
2023/07/05 10:42:16;;;;;;;;;;;;;;;;;;5010954;28;20366;-62
2023/07/05 10:44:41;;;;;;;7.78;3.05;;;;;;;;;;5010783;28;19912;-63
2023/07/05 10:47:09;;;;;;;7.50;3.25;;;;;;;;;;5009709;28;20432;-63
2023/07/05 10:49:35;;;;;;;5.25;2.40;;;;;;;;;;5009894;28;20397;-62
2023/07/05 10:52:03;;;;;;;6.35;2.22;;;;;;;;;;5010993;28;20021;-63
2023/07/05 10:54:48;;;;;;;4.95;1.70;;;;;;;;;;5010828;28;20049;-64
2023/07/05 10:57:27;;;;;;;3.95;1.42;;;;;;;;;;5007412;28;20038;-63
2023/07/05 10:59:56;;;;;;;4.38;1.77;;;;;;;;;;5006768;28;20387;-64
2023/07/05 11:02:37;;;;;;;4.93;1.80;;;;;;;;;;5002683;28;20481;-64
2023/07/05 11:05:03;;;;;;;5.72;1.63;;;;;;;;;;5006108;28;20113;-63
2023/07/05 11:07:28;;;;;;;;;;;;;;;;;;5007195;28;20573;-62
2023/07/05 11:09:53;;;;;;;4.72;1.60;;;;;;;;;;5004819;28;19918;-64
2023/07/05 11:12:20;;;;;;;;;;;;;;;;;;5010742;28;20101;-63
2023/07/05 11:14:45;;;;;;;3.90;1.58;;;;;;;;;;5010766;28;19999;-63
2023/07/05 11:17:10;;;;;;;;;;;;;;;;;;5011094;28;20115;-64
2023/07/05 11:19:35;;;;;;;4.97;1.55;;;;;;;;;;5009153;28;19914;-63
2023/07/05 11:22:02;;;;;;;3.95;1.75;;;;;;;;;;5008754;28;20100;-63
2023/07/05 11:24:31;;;;;;;5.35;1.92;;;;;;;;;;5008628;28;20018;-63
2023/07/05 11:26:56;;;;;;;5.32;2.10;;;;;;;;;;5007982;28;20061;-64
2023/07/05 11:29:21;;;;;;;;;;;;;;;;;;5011207;28;20476;-63
2023/07/05 11:31:46;;;;;;;4.97;2.13;;;;;;;;;;5010625;28;20471;-63
2023/07/05 11:34:21;;;;;;;6.80;2.22;;;;;;;;;;5010224;28;20014;-63
2023/07/05 11:36:47;;;;;;;5.18;1.90;;;;;;;;;;5009698;28;20109;-63
2023/07/05 11:39:12;;;;;;;;;;;;;;;;;;5009897;28;20103;-62
2023/07/05 11:41:39;;;;;;;9.32;1.73;;;;;;;;;;5010788;28;19905;-61
2023/07/05 11:44:22;;;;;;;4.72;1.65;;;;;;;;;;5010208;28;20022;-62
2023/07/05 11:46:48;;;;;;;6.25;1.80;;;;;;;;;;5009520;28;20029;-64
2023/07/05 11:49:13;;;;;;;5.20;1.67;;;;;;;;;;5010884;28;20071;-64
2023/07/05 11:51:39;;;;;;;5.35;1.70;;;;;;;;;;5010844;28;20022;-64
2023/07/05 11:54:05;;;;;;;5.40;1.70;;;;;;;;;;5009332;28;20033;-63
2023/07/05 11:56:30;;;;;;;;;;;;;;;;;;5006732;28;20029;-64
2023/07/05 11:58:56;;;;;;;9.60;2.40;;;;;;;;;;5025407;28;19921;-65
2023/07/05 12:01:27;;;;;;;5.53;1.80;;;;;;;;;;5009747;28;20386;-63
2023/07/05 12:03:54;;;;;;;4.90;1.92;;;;;;;;;;5009792;28;20014;-64
2023/07/05 12:06:20;;;;;;;11.93;2.05;;;;;;;;;;5009828;28;20038;-64
2023/07/05 12:08:57;;;;;;;5.80;1.80;;;;;;;;;;5013627;28;20049;-62
2023/07/05 12:11:41;;;;;;;5.43;1.77;;;;;;;;;;5005401;28;20021;-64
2023/07/05 12:14:10;;;;;;;6.20;1.70;;;;;;;;;;5005523;28;20018;-64
2023/07/05 12:16:36;;;;;;;5.93;1.67;;;;;;;;;;5013714;28;20057;-62
2023/07/05 12:19:01;;;;;;;;;;;;;;;;;;5013912;28;20057;-63
2023/07/05 12:21:26;;;;;;;7.47;1.80;;;;;;;;;;5008114;28;20374;-62
2023/07/05 12:23:54;;;;;;;6.50;2.13;;;;;;;;;;5011989;28;20069;-62
2023/07/05 12:26:27;;;;;;;12.35;2.05;;;;;;;;;;5012716;28;20080;-64
2023/07/05 12:28:52;;;;;;;8.85;1.88;;;;;;;;;;5005720;28;20385;-64
2023/07/05 12:31:17;;;;;;;;;;;;;;;;;;5011942;28;20022;-62
2023/07/05 12:33:50;;;;;;;5.55;1.40;;;;;;;;;;5012564;28;19910;-64
2023/07/05 12:36:17;;;;;;;7.30;1.40;;;;;;;;;;5014448;28;20022;-62
2023/07/05 12:38:43;;;;;;;5.82;1.50;;;;;;;;;;5019455;28;20053;-62
2023/07/05 12:41:14;;;;;;;4.78;1.60;;;;;;;;;;5017972;28;20085;-62
2023/07/05 12:43:40;;;;;;;4.45;1.75;;;;;;;;;;5013072;28;20057;-64
2023/07/05 12:46:05;;;;;;;;;;;;;;;;;;5014240;28;20585;-63
2023/07/05 12:48:30;;;;;;;4.90;1.38;;;;;;;;;;5012992;28;19917;-64
2023/07/05 12:50:55;;;;;;;;;;;;;;;;;;5010088;28;20026;-63
2023/07/05 12:53:22;;;;;;;5.75;1.48;;;;;;;;;;5009060;28;19917;-64
2023/07/05 12:55:54;;;;;;;5.40;1.25;;;;;;;;;;5013272;28;20038;-65
2023/07/05 12:58:21;;;;;;;5.30;1.40;;;;;;;;;;5012995;28;20046;-63
2023/07/05 13:00:50;;;;;;;8.18;1.77;;;;;;;;;;5002315;28;20025;-63
2023/07/05 13:03:16;;;;;;;4.07;1.33;;;;;;;;;;5012322;28;20018;-64
2023/07/05 13:05:41;;;;;;;;;;;;;;;;;;5013281;28;20036;-63
2023/07/05 13:08:07;;;;;;;9.57;2.08;;;;;;;;;;5012962;28;19913;-62
2023/07/05 13:10:36;;;;;;;8.25;1.92;;;;;;;;;;5013132;28;20030;-63
2023/07/05 13:13:19;;;;;;;11.15;2.20;;;;;;;;;;5004776;28;20014;-62
2023/07/05 13:15:44;;;;;;;4.90;1.40;;;;;;;;;;5012772;28;20605;-62
2023/07/05 13:18:09;;;;;;;;;;;;;;;;;;5013676;28;20093;-61
2023/07/05 13:20:35;;;;;;;4.93;1.80;;;;;;;;;;5009616;28;19917;-63
2023/07/05 13:23:01;;;;;;;;;;;;;;;;;;5007624;28;20140;-64
2023/07/05 13:25:32;;;;;;;7.00;1.63;;;;;;;;;;5007974;28;20384;-64
2023/07/05 13:27:58;;;;;;;4.03;1.40;;;;;;;;;;5012272;28;20025;-64
2023/07/05 13:30:23;;;;;;;11.68;1.63;;;;;;;;;;5009687;28;20033;-63
2023/07/05 13:32:48;;;;;;;;;;;;;;;;;;5012134;28;20393;-64
2023/07/05 13:35:13;;;;;;;12.18;1.70;;;;;;;;;;5012119;28;19906;-63
2023/07/05 13:37:39;;;;;;;3.13;1.10;;;;;;;;;;5012672;28;20160;-64
2023/07/05 13:40:09;;;;;;;;;;;;;;;;;;5011529;28;20084;-64
2023/07/05 13:42:38;;;;;;;3.65;1.40;;;;;;;;;;5011303;28;19913;-63
2023/07/05 13:45:03;;;;;;;4.40;1.15;;;;;;;;;;5012154;28;20017;-63
2023/07/05 13:47:28;;;;;;;;;;;;;;;;;;5012843;28;20022;-64
2023/07/05 13:49:53;;;;;;;4.25;1.25;;;;;;;;;;5011159;28;19913;-61
2023/07/05 13:52:19;;;;;;;;;;;;;;;;;;5012205;28;20450;-62
2023/07/05 13:54:45;;;;;;;4.72;1.30;;;;;;;;;;5011917;28;19906;-63
2023/07/05 13:57:17;;;;;;;9.38;1.40;;;;;;;;;;5012842;28;20036;-64
2023/07/05 13:59:43;;;;;;;5.55;1.42;;;;;;;;;;5006567;28;20025;-62
2023/07/05 14:02:23;;;;;;;3.85;1.10;;;;;;;;;;5001407;28;20041;-63
2023/07/05 14:04:49;;;;;;;4.32;1.20;;;;;;;;;;5005349;28;20386;-63
2023/07/05 14:07:14;;;;;;;10.70;1.48;;;;;;;;;;5010278;28;20026;-62
2023/07/05 14:09:40;;;;;;;;;;;;;;;;;;5012712;28;20071;-63
2023/07/05 14:12:06;;;;;;;3.47;1.08;;;;;;;;;;5011264;28;19913;-64
2023/07/05 14:14:31;;;;;;;3.33;1.13;;;;;;;;;;5009727;28;20026;-63
2023/07/05 14:16:57;;;;;;;4.13;1.10;;;;;;;;;;5011317;28;20601;-64
2023/07/05 14:19:22;;;;;;;;;;;;;;;;;;5011884;28;20033;-61
2023/07/05 14:21:48;;;;;;;2.97;1.10;;;;;;;;;;5011607;28;19960;-64
2023/07/05 14:24:13;;;;;;;;;;;;;;;;;;5010327;28;20038;-65
2023/07/05 14:26:39;;;;;;;4.35;1.20;;;;;;;;;;5011155;28;19909;-65
2023/07/05 14:29:04;;;;;;;;;;;;;;;;;;5011167;28;20534;-62
2023/07/05 14:31:31;;;;;;;4.28;1.20;;;;;;;;;;5011125;28;19956;-63
2023/07/05 14:33:57;;;;;;;4.38;1.50;;;;;;;;;;5009034;28;20021;-62
2023/07/05 14:36:22;;;;;;;;;;;;;;;;;;5010100;28;20367;-63
2023/07/05 14:38:47;;;;;;;4.22;1.38;;;;;;;;;;5005937;28;22174;-63
2023/07/05 14:41:12;;;;;;;;;;;;;;;;;;5009225;28;20045;-64
2023/07/05 14:43:37;;;;;;;2.78;1.10;;;;;;;;;;5011086;28;19913;-65